Time;durP1;ratioP1;P1;durP2;ratioP2;P2;SDS_P1;SDS_P2;PMS_P1;PMS_P2;Temp;Humidity;BMP_temperature;BMP_pressure;BME280_temperature;BME280_humidity;BME280_pressure;Samples;Min_cycle;Max_cycle;Signal;HPM_P1;HPM_P2
2024/04/14 00:00:42;;;;;;;131.60;68.93;;;18.20;99.90;;;;;;766416;187;26726;-78
2024/04/14 00:03:08;;;;;;;158.27;88.47;;;18.20;99.90;;;;;;752463;190;27052;-79
2024/04/14 00:05:35;;;;;;;142.13;72.00;;;18.20;99.90;;;;;;766213;187;26481;-77
2024/04/14 00:08:02;;;;;;;65.77;36.90;;;18.20;99.90;;;;;;752827;190;26562;-77
2024/04/14 00:10:28;;;;;;;27.17;15.60;;;18.20;99.90;;;;;;761881;186;26500;-76
2024/04/14 00:12:55;;;;;;;20.93;9.47;;;18.20;99.90;;;;;;760678;188;26498;-77
2024/04/14 00:15:21;;;;;;;34.13;18.53;;;18.30;99.90;;;;;;780946;183;26540;-76
2024/04/14 00:17:48;;;;;;;71.80;37.10;;;18.30;99.90;;;;;;766533;187;27095;-76
2024/04/14 00:20:14;;;;;;;17.67;12.07;;;18.20;99.90;;;;;;765443;187;26565;-78
2024/04/14 00:22:41;;;;;;;16.50;9.13;;;18.20;99.90;;;;;;783075;183;26535;-78
2024/04/14 00:25:08;;;;;;;11.93;6.50;;;18.20;99.90;;;;;;780030;183;26455;-78
2024/04/14 00:27:34;;;;;;;19.67;10.87;;;18.30;99.90;;;;;;780772;183;26462;-77
2024/04/14 00:30:01;;;;;;;14.37;10.07;;;18.30;99.90;;;;;;767180;186;27099;-76
2024/04/14 00:32:27;;;;;;;12.83;5.77;;;18.30;99.90;;;;;;785242;172;26445;-76
2024/04/14 00:34:54;;;;;;;17.83;10.80;;;18.30;99.90;;;;;;814409;175;27006;-77
2024/04/14 00:37:21;;;;;;;10.00;6.67;;;18.20;99.90;;;;;;828010;171;26385;-76
2024/04/14 00:39:47;;;;;;;16.50;8.80;;;18.10;99.90;;;;;;815781;174;26403;-78
2024/04/14 00:42:14;;;;;;;14.63;7.47;;;18.00;99.90;;;;;;812580;175;27054;-78
2024/04/14 00:44:41;;;;;;;13.67;7.43;;;18.00;99.90;;;;;;805452;177;26410;-77
2024/04/14 00:47:07;;;;;;;9.20;5.50;;;17.80;99.90;;;;;;798024;178;26952;-77
2024/04/14 00:49:34;;;;;;;14.87;7.13;;;17.80;99.90;;;;;;817529;174;26455;-78
2024/04/14 00:52:00;;;;;;;8.43;4.63;;;17.80;99.90;;;;;;812077;174;26990;-78
2024/04/14 00:54:27;;;;;;;8.50;4.90;;;17.80;99.90;;;;;;819161;174;26427;-76
2024/04/14 00:56:53;;;;;;;11.77;6.17;;;17.80;99.90;;;;;;812695;175;26972;-76
2024/04/14 00:59:20;;;;;;;6.07;3.40;;;17.70;99.60;;;;;;811579;175;26459;-76
2024/04/14 01:01:47;;;;;;;7.03;3.70;;;17.70;98.10;;;;;;816999;175;26514;-79
2024/04/14 01:04:13;;;;;;;6.77;3.03;;;17.60;97.40;;;;;;811965;175;26580;-75
2024/04/14 01:06:40;;;;;;;6.67;4.50;;;17.60;94.70;;;;;;814855;175;26408;-76
2024/04/14 01:09:08;;;;;;;5.23;3.03;;;17.50;93.60;;;;;;810886;175;26536;-77
2024/04/14 01:11:33;;;;;;;5.53;2.50;;;17.40;92.40;;;;;;816721;175;26589;-78
2024/04/14 01:14:00;;;;;;;4.00;2.80;;;17.40;90.30;;;;;;812625;174;26437;-79
2024/04/14 01:16:28;;;;;;;3.67;2.40;;;17.20;90.30;;;;;;814689;175;26420;-77
2024/04/14 01:18:53;;;;;;;3.17;2.10;;;17.10;85.50;;;;;;821836;171;26428;-77
2024/04/14 01:21:19;;;;;;;3.67;2.13;;;17.10;82.50;;;;;;814875;171;26409;-78
2024/04/14 01:23:46;;;;;;;4.77;2.13;;;17.00;82.80;;;;;;818301;175;26500;-77
2024/04/14 01:26:12;;;;;;;4.97;2.30;;;16.90;80.70;;;;;;811528;175;26424;-77
2024/04/14 01:28:39;;;;;;;3.30;2.30;;;16.90;79.30;;;;;;816396;175;26436;-77
2024/04/14 01:31:06;;;;;;;7.67;3.03;;;16.90;78.10;;;;;;813832;174;26418;-78
2024/04/14 01:33:32;;;;;;;2.70;2.10;;;16.90;76.60;;;;;;811839;175;26950;-76
2024/04/14 01:35:59;;;;;;;6.57;3.50;;;16.80;76.20;;;;;;812587;175;26404;-77
2024/04/14 01:38:25;;;;;;;6.53;3.57;;;16.70;76.60;;;;;;814319;175;26977;-78
2024/04/14 01:40:52;;;;;;;5.23;2.77;;;16.60;77.40;;;;;;812871;171;26408;-78
2024/04/14 01:43:19;;;;;;;5.17;2.57;;;16.60;78.20;;;;;;814556;175;26422;-78
2024/04/14 01:45:45;;;;;;;7.50;3.20;;;16.50;79.10;;;;;;820841;175;26397;-77
2024/04/14 01:48:12;;;;;;;4.57;2.70;;;16.50;80.10;;;;;;815824;174;26404;-78
2024/04/14 01:50:39;;;;;;;5.83;2.40;;;16.40;82.00;;;;;;819362;174;26393;-78
2024/04/14 01:53:05;;;;;;;5.87;2.37;;;16.30;81.80;;;;;;816739;174;26947;-78
2024/04/14 01:55:32;;;;;;;5.17;2.37;;;16.20;83.00;;;;;;814096;174;26426;-78
2024/04/14 01:57:59;;;;;;;2.57;2.10;;;16.10;84.00;;;;;;809475;174;26987;-77
2024/04/14 02:00:25;;;;;;;2.60;2.00;;;16.00;84.80;;;;;;822917;174;26483;-76
2024/04/14 02:02:54;;;;;;;3.47;2.30;;;16.00;85.00;;;;;;818828;173;27073;-76
2024/04/14 02:05:18;;;;;;;5.53;2.40;;;15.90;85.80;;;;;;814755;174;26575;-76
2024/04/14 02:07:44;;;;;;;6.40;2.67;;;15.90;86.30;;;;;;807288;175;28045;-77
2024/04/14 02:10:11;;;;;;;4.90;2.20;;;15.80;86.70;;;;;;812391;175;26432;-77
2024/04/14 02:12:38;;;;;;;6.17;2.97;;;15.80;87.30;;;;;;811900;175;26984;-76
2024/04/14 02:15:05;;;;;;;6.40;2.70;;;15.80;88.30;;;;;;815936;175;26583;-76
2024/04/14 02:17:31;;;;;;;7.60;3.33;;;15.60;89.10;;;;;;814229;175;26436;-77
2024/04/14 02:19:58;;;;;;;7.70;2.80;;;15.60;90.30;;;;;;816935;175;26764;-77
2024/04/14 02:22:24;;;;;;;4.67;2.73;;;15.50;90.30;;;;;;809893;175;26453;-77
2024/04/14 02:24:51;;;;;;;16.27;6.43;;;15.40;90.40;;;;;;814654;175;26565;-76
2024/04/14 02:27:18;;;;;;;7.23;4.10;;;15.40;90.60;;;;;;809905;175;26434;-76
2024/04/14 02:29:44;;;;;;;9.10;3.00;;;15.40;91.20;;;;;;811986;175;26445;-76
2024/04/14 02:32:11;;;;;;;5.97;3.10;;;15.30;90.40;;;;;;809922;175;26519;-77
2024/04/14 02:34:37;;;;;;;6.23;2.50;;;15.30;90.60;;;;;;813480;175;26540;-77
2024/04/14 02:37:04;;;;;;;9.67;3.30;;;15.30;90.60;;;;;;813693;172;26404;-77
2024/04/14 02:39:31;;;;;;;6.30;3.00;;;15.30;90.90;;;;;;817036;174;26571;-78
2024/04/14 02:41:57;;;;;;;8.70;3.73;;;15.30;91.10;;;;;;808860;175;26756;-77
2024/04/14 02:44:24;;;;;;;4.93;2.80;;;15.20;91.20;;;;;;814267;175;26420;-77
2024/04/14 02:46:50;;;;;;;9.90;3.00;;;15.20;91.80;;;;;;816113;175;26440;-77
2024/04/14 02:49:17;;;;;;;11.17;5.43;;;15.20;91.40;;;;;;815839;175;26428;-77
2024/04/14 02:51:43;;;;;;;8.40;3.40;;;15.10;91.40;;;;;;811866;175;26469;-77
2024/04/14 02:54:10;;;;;;;5.03;2.63;;;15.00;91.30;;;;;;815447;175;26412;-77
2024/04/14 02:56:37;;;;;;;12.20;3.03;;;15.10;91.30;;;;;;812946;175;26436;-77
2024/04/14 02:59:03;;;;;;;6.07;2.73;;;15.00;91.60;;;;;;817810;174;26440;-77
2024/04/14 03:01:30;;;;;;;5.03;2.87;;;15.00;92.10;;;;;;822084;174;26486;-77
2024/04/14 03:03:56;;;;;;;5.50;3.00;;;14.90;91.80;;;;;;812808;170;27604;-76
2024/04/14 03:06:23;;;;;;;6.60;2.90;;;14.90;91.60;;;;;;811496;174;26416;-77
2024/04/14 03:08:50;;;;;;;6.17;3.13;;;14.90;91.90;;;;;;811677;174;26448;-77
2024/04/14 03:11:16;;;;;;;6.20;3.10;;;14.90;92.00;;;;;;817149;174;26423;-77
2024/04/14 03:13:43;;;;;;;8.90;3.43;;;14.90;92.30;;;;;;818425;174;26559;-77
2024/04/14 03:16:09;;;;;;;8.70;3.70;;;14.80;92.40;;;;;;811736;173;26414;-77
2024/04/14 03:18:36;;;;;;;9.43;3.43;;;14.80;92.40;;;;;;821205;174;26411;-77
2024/04/14 03:21:03;;;;;;;8.17;3.43;;;14.80;92.60;;;;;;812837;175;27013;-77
2024/04/14 03:23:30;;;;;;;7.90;2.93;;;14.70;92.90;;;;;;813450;175;26614;-77
2024/04/14 03:25:56;;;;;;;6.90;3.60;;;14.80;93.10;;;;;;815537;175;26416;-77
2024/04/14 03:28:23;;;;;;;7.90;3.30;;;14.80;93.40;;;;;;814638;175;26428;-77
2024/04/14 03:30:50;;;;;;;11.57;5.87;;;14.70;93.80;;;;;;809552;175;26426;-78
2024/04/14 03:33:16;;;;;;;12.83;3.90;;;14.70;93.80;;;;;;811157;175;26743;-78
2024/04/14 03:35:43;;;;;;;6.43;3.83;;;14.70;94.40;;;;;;811961;175;26406;-77
2024/04/14 03:38:09;;;;;;;6.97;3.33;;;14.60;94.10;;;;;;812826;175;26409;-78
2024/04/14 03:40:36;;;;;;;7.17;3.27;;;14.60;94.00;;;;;;814763;171;26428;-77
2024/04/14 03:43:03;;;;;;;11.53;4.90;;;14.50;94.20;;;;;;809315;175;26452;-77
2024/04/14 03:45:29;;;;;;;6.60;3.47;;;14.50;94.50;;;;;;805617;175;26456;-77
2024/04/14 03:47:57;;;;;;;4.53;2.47;;;14.40;94.70;;;;;;807841;175;26489;-76
2024/04/14 03:50:22;;;;;;;10.10;4.60;;;14.40;94.90;;;;;;815278;175;26975;-76
2024/04/14 03:52:49;;;;;;;14.23;5.70;;;14.40;95.20;;;;;;817550;175;26432;-77
2024/04/14 03:55:16;;;;;;;7.83;2.73;;;14.30;95.50;;;;;;820081;175;26586;-78
2024/04/14 03:57:42;;;;;;;6.60;2.77;;;14.30;95.80;;;;;;824404;174;26597;-78
2024/04/14 04:00:10;;;;;;;6.73;2.60;;;14.30;95.90;;;;;;823840;175;26408;-78
2024/04/14 04:02:36;;;;;;;16.40;8.13;;;14.30;96.40;;;;;;807489;175;26450;-77
2024/04/14 04:05:03;;;;;;;7.53;2.93;;;14.30;96.60;;;;;;807643;175;26749;-77
2024/04/14 04:07:29;;;;;;;6.87;2.77;;;14.30;96.50;;;;;;817169;175;26428;-76
2024/04/14 04:09:55;;;;;;;7.00;3.23;;;14.30;96.70;;;;;;815473;175;26581;-79
2024/04/14 04:12:22;;;;;;;5.27;2.37;;;14.30;97.00;;;;;;815548;174;26997;-77
2024/04/14 04:14:49;;;;;;;5.47;2.83;;;14.30;97.20;;;;;;815760;174;26426;-78
2024/04/14 04:17:15;;;;;;;5.07;2.57;;;14.20;97.60;;;;;;817779;174;26432;-78
2024/04/14 04:19:42;;;;;;;5.63;2.77;;;14.20;97.90;;;;;;824003;174;26425;-78
2024/04/14 04:22:08;;;;;;;6.67;3.50;;;14.20;97.80;;;;;;812592;174;26424;-77
2024/04/14 04:24:35;;;;;;;7.43;2.77;;;14.10;98.10;;;;;;814107;174;26492;-77
2024/04/14 04:27:02;;;;;;;8.73;2.90;;;14.10;98.30;;;;;;820648;174;26493;-77
2024/04/14 04:29:29;;;;;;;5.23;2.50;;;14.00;98.80;;;;;;813559;174;26421;-77
2024/04/14 04:31:55;;;;;;;6.80;2.80;;;14.00;99.20;;;;;;810313;175;26457;-77
2024/04/14 04:34:22;;;;;;;7.63;3.33;;;13.90;99.70;;;;;;812418;175;26983;-77
2024/04/14 04:36:50;;;;;;;7.40;3.93;;;13.80;99.90;;;;;;810495;175;26510;-78
2024/04/14 04:39:15;;;;;;;7.43;3.17;;;13.80;99.90;;;;;;814429;175;26585;-77
2024/04/14 04:41:42;;;;;;;8.83;2.90;;;13.80;99.90;;;;;;815310;174;27016;-77
2024/04/14 04:44:09;;;;;;;8.00;2.73;;;13.70;99.90;;;;;;810684;175;26424;-77
2024/04/14 04:46:35;;;;;;;9.53;3.67;;;13.70;99.90;;;;;;810786;171;27028;-76
2024/04/14 04:49:02;;;;;;;7.20;3.60;;;13.70;99.90;;;;;;808253;175;26487;-77
2024/04/14 04:51:29;;;;;;;7.53;2.90;;;13.80;99.90;;;;;;811430;174;27037;-77
2024/04/14 04:53:55;;;;;;;6.27;3.50;;;13.70;99.90;;;;;;809303;175;26434;-77
2024/04/14 04:56:22;;;;;;;8.47;3.23;;;13.70;99.90;;;;;;813249;175;26986;-76
2024/04/14 04:58:48;;;;;;;6.17;2.83;;;13.70;99.90;;;;;;816865;175;26445;-75
2024/04/14 05:01:15;;;;;;;10.10;3.50;;;13.80;99.90;;;;;;819950;175;26974;-77
2024/04/14 05:03:41;;;;;;;9.03;3.47;;;13.80;99.90;;;;;;816454;172;26424;-76
2024/04/14 05:06:08;;;;;;;9.90;3.17;;;13.80;99.90;;;;;;815383;175;27209;-77
2024/04/14 05:08:35;;;;;;;7.17;3.50;;;13.80;99.90;;;;;;809985;175;26466;-77
2024/04/14 05:11:01;;;;;;;11.60;3.90;;;13.70;99.90;;;;;;817479;175;26955;-77
2024/04/14 05:13:28;;;;;;;8.43;3.50;;;13.70;99.90;;;;;;814129;175;26451;-77
2024/04/14 05:15:54;;;;;;;8.33;3.87;;;13.70;99.90;;;;;;813117;175;26950;-76
2024/04/14 05:18:21;;;;;;;8.53;3.10;;;13.60;99.90;;;;;;817268;175;26611;-77
2024/04/14 05:20:47;;;;;;;8.47;2.97;;;13.60;99.90;;;;;;810613;175;26421;-77
2024/04/14 05:23:14;;;;;;;11.10;3.13;;;13.60;99.90;;;;;;816626;174;26447;-78
2024/04/14 05:25:41;;;;;;;14.37;4.03;;;13.60;99.90;;;;;;814412;174;26417;-77
2024/04/14 05:28:07;;;;;;;5.97;3.43;;;13.60;99.90;;;;;;820689;174;26404;-77
2024/04/14 05:30:39;;;;;;;8.70;4.13;;;13.60;99.90;;;;;;821938;174;26404;-77
2024/04/14 05:33:03;;;;;;;9.57;3.87;;;13.60;99.90;;;;;;817609;174;26441;-77
2024/04/14 05:35:30;;;;;;;9.33;4.17;;;13.60;99.90;;;;;;816055;174;26584;-79
2024/04/14 05:37:56;;;;;;;8.63;3.50;;;13.60;99.90;;;;;;816884;174;26955;-78
2024/04/14 05:40:25;;;;;;;8.57;4.17;;;13.60;99.90;;;;;;816365;174;26429;-78
2024/04/14 05:42:50;;;;;;;9.27;4.23;;;13.60;99.90;;;;;;815967;175;28060;-78
2024/04/14 05:45:16;;;;;;;9.20;3.80;;;13.60;99.90;;;;;;817334;175;26435;-77
2024/04/14 05:47:43;;;;;;;9.93;4.47;;;13.50;99.90;;;;;;812941;175;26978;-77
2024/04/14 05:50:09;;;;;;;8.47;4.67;;;13.60;99.90;;;;;;813757;175;26428;-78
2024/04/14 05:52:36;;;;;;;14.60;4.97;;;13.60;99.90;;;;;;819185;175;26423;-77
2024/04/14 05:55:02;;;;;;;8.83;4.33;;;13.60;99.90;;;;;;820422;175;26456;-77
2024/04/14 05:57:29;;;;;;;15.63;4.57;;;13.70;99.90;;;;;;811045;175;26409;-78
2024/04/14 05:59:56;;;;;;;11.43;5.13;;;13.70;99.90;;;;;;812066;175;26568;-78
2024/04/14 06:02:22;;;;;;;18.80;5.20;;;13.60;99.90;;;;;;813866;175;26429;-78
2024/04/14 06:04:49;;;;;;;14.77;5.03;;;13.60;99.90;;;;;;816262;175;26582;-78
2024/04/14 06:07:16;;;;;;;11.43;5.00;;;13.70;99.90;;;;;;824258;175;26431;-78
2024/04/14 06:09:43;;;;;;;15.07;5.27;;;13.70;99.90;;;;;;821191;175;26412;-77
2024/04/14 06:12:09;;;;;;;13.87;5.70;;;13.80;99.90;;;;;;819837;174;26465;-77
2024/04/14 06:14:36;;;;;;;13.73;5.30;;;13.80;99.90;;;;;;817717;175;26428;-77
2024/04/14 06:17:02;;;;;;;15.23;5.77;;;13.90;99.90;;;;;;819012;175;26960;-76
2024/04/14 06:19:29;;;;;;;13.93;5.67;;;14.00;99.90;;;;;;815684;172;26422;-76
2024/04/14 06:21:56;;;;;;;13.67;5.43;;;14.10;99.90;;;;;;820612;171;26588;-77
2024/04/14 06:24:22;;;;;;;14.00;6.43;;;14.10;99.90;;;;;;810640;175;26440;-77
2024/04/14 06:26:49;;;;;;;19.07;6.30;;;14.10;99.90;;;;;;817002;175;26401;-75
2024/04/14 06:29:15;;;;;;;18.53;6.00;;;14.10;99.90;;;;;;810759;175;26450;-77
2024/04/14 06:31:52;;;;;;;11.63;5.93;;;14.10;99.90;;;;;;814824;175;26986;-76
2024/04/14 06:34:18;;;;;;;12.13;5.53;;;14.10;99.90;;;;;;799445;176;26988;-76
2024/04/14 06:36:45;;;;;;;10.83;6.00;;;14.10;99.90;;;;;;790643;181;26509;-76
2024/04/14 06:39:12;;;;;;;15.77;5.80;;;14.20;99.90;;;;;;803318;176;27006;-73
2024/04/14 06:41:38;;;;;;;14.80;6.07;;;14.20;99.90;;;;;;805806;176;26448;-75
2024/04/14 06:44:05;;;;;;;17.63;5.93;;;14.20;99.90;;;;;;787975;178;27068;-76
2024/04/14 06:46:31;;;;;;;16.63;6.20;;;14.20;99.90;;;;;;764144;187;26557;-75
2024/04/14 06:48:58;;;;;;;17.83;6.80;;;14.30;99.90;;;;;;780219;183;26475;-75
2024/04/14 06:51:25;;;;;;;15.73;6.93;;;14.40;99.90;;;;;;780162;182;26466;-75
2024/04/14 06:53:51;;;;;;;15.67;6.87;;;14.20;99.90;;;;;;780250;183;26516;-77
2024/04/14 06:56:18;;;;;;;18.73;7.23;;;14.10;99.90;;;;;;779655;183;26466;-76
2024/04/14 06:58:45;;;;;;;19.80;7.07;;;14.20;99.90;;;;;;783217;182;26452;-76
2024/04/14 07:01:12;;;;;;;20.37;7.27;;;14.30;99.90;;;;;;781920;182;27043;-76
2024/04/14 07:03:39;;;;;;;20.80;6.97;;;14.50;99.90;;;;;;780737;184;26526;-75
2024/04/14 07:06:05;;;;;;;21.00;8.27;;;14.40;99.90;;;;;;780763;182;27034;-75
2024/04/14 07:08:32;;;;;;;19.17;7.10;;;14.40;99.90;;;;;;779418;184;28218;-77
2024/04/14 07:10:59;;;;;;;23.83;8.30;;;14.40;99.90;;;;;;778840;183;26659;-75
2024/04/14 07:13:26;;;;;;;22.60;6.87;;;14.40;99.90;;;;;;778909;184;26472;-75
2024/04/14 07:15:52;;;;;;;19.93;7.20;;;14.50;99.90;;;;;;780189;183;26486;-73
2024/04/14 07:18:19;;;;;;;21.77;7.53;;;14.50;99.90;;;;;;779020;183;26511;-76
2024/04/14 07:20:46;;;;;;;20.13;8.10;;;14.40;99.90;;;;;;780499;182;26526;-76
2024/04/14 07:23:12;;;;;;;24.53;8.53;;;14.40;99.90;;;;;;780192;183;27060;-76
2024/04/14 07:25:39;;;;;;;14.37;6.17;;;14.70;99.90;;;;;;779667;184;26552;-77
2024/04/14 07:28:06;;;;;;;19.87;8.17;;;15.00;99.90;;;;;;780317;182;27017;-76
2024/04/14 07:30:32;;;;;;;14.00;6.27;;;15.20;99.90;;;;;;781593;182;27045;-76
2024/04/14 07:32:59;;;;;;;19.93;7.03;;;15.40;99.90;;;;;;781910;182;26524;-76
2024/04/14 07:35:25;;;;;;;16.53;6.77;;;15.20;99.90;;;;;;779731;183;27059;-76
2024/04/14 07:37:52;;;;;;;16.40;6.70;;;15.20;99.90;;;;;;779443;184;26481;-77
2024/04/14 07:40:19;;;;;;;22.30;7.43;;;15.20;99.90;;;;;;781369;182;26506;-76
2024/04/14 07:42:45;;;;;;;19.13;6.77;;;15.20;99.90;;;;;;780781;182;26535;-76
2024/04/14 07:45:12;;;;;;;20.13;6.60;;;15.00;99.90;;;;;;778879;182;27072;-77
2024/04/14 07:47:38;;;;;;;14.17;5.97;;;15.10;99.90;;;;;;782476;183;26484;-73
2024/04/14 07:50:05;;;;;;;13.57;6.30;;;15.20;99.90;;;;;;780835;182;28869;-76
2024/04/14 07:52:32;;;;;;;17.67;6.37;;;15.30;99.90;;;;;;780722;182;26656;-76
2024/04/14 07:54:58;;;;;;;15.17;6.67;;;15.20;99.90;;;;;;780342;182;26528;-76
2024/04/14 07:57:27;;;;;;;17.43;7.43;;;15.20;99.90;;;;;;779933;182;26451;-76
2024/04/14 07:59:51;;;;;;;19.87;6.90;;;15.10;99.90;;;;;;779638;182;26463;-75
2024/04/14 08:02:18;;;;;;;15.93;7.60;;;15.40;99.90;;;;;;780110;182;26467;-76
2024/04/14 08:04:45;;;;;;;17.30;7.00;;;15.50;99.90;;;;;;779697;182;26452;-76
2024/04/14 08:07:12;;;;;;;17.57;7.13;;;15.80;99.90;;;;;;779314;183;26472;-77
2024/04/14 08:09:38;;;;;;;14.63;6.40;;;16.00;99.90;;;;;;779715;182;26499;-76
2024/04/14 08:12:05;;;;;;;12.87;6.20;;;16.20;99.90;;;;;;780740;183;26462;-76
2024/04/14 08:14:32;;;;;;;13.93;6.30;;;16.20;99.90;;;;;;781896;182;26452;-77
2024/04/14 08:16:58;;;;;;;17.47;6.33;;;16.40;99.90;;;;;;779503;182;27069;-76
2024/04/14 08:19:25;;;;;;;13.73;6.00;;;16.50;99.90;;;;;;782090;182;26508;-76
2024/04/14 08:21:51;;;;;;;14.00;5.97;;;16.60;99.90;;;;;;781245;183;26451;-77
2024/04/14 08:24:18;;;;;;;16.47;5.40;;;16.80;99.90;;;;;;779749;182;26524;-75
2024/04/14 08:26:45;;;;;;;13.40;4.90;;;16.90;99.80;;;;;;778897;182;26454;-76
2024/04/14 08:29:11;;;;;;;10.90;4.93;;;16.60;99.90;;;;;;779672;182;27061;-75
2024/04/14 08:31:39;;;;;;;17.37;6.37;;;16.20;99.90;;;;;;780096;182;26499;-74
2024/04/14 08:34:04;;;;;;;17.40;6.53;;;16.40;99.90;;;;;;778534;183;26518;-75
2024/04/14 08:36:31;;;;;;;15.30;6.93;;;16.60;99.90;;;;;;783171;182;27133;-76
2024/04/14 08:38:58;;;;;;;17.63;6.67;;;16.90;99.90;;;;;;779036;183;26509;-75
2024/04/14 08:41:25;;;;;;;15.53;6.20;;;17.00;99.90;;;;;;780244;182;27068;-77
2024/04/14 08:43:51;;;;;;;17.67;6.60;;;17.00;99.90;;;;;;780237;183;26471;-78
2024/04/14 08:46:19;;;;;;;13.77;6.83;;;17.20;99.30;;;;;;779033;183;26477;-76
2024/04/14 08:48:45;;;;;;;18.03;7.60;;;17.40;99.20;;;;;;779628;184;26508;-76
2024/04/14 08:51:12;;;;;;;18.50;6.33;;;17.40;99.30;;;;;;781666;183;26479;-76
2024/04/14 08:53:38;;;;;;;17.63;6.20;;;17.00;98.70;;;;;;778982;182;26492;-75
2024/04/14 08:56:05;;;;;;;14.07;5.23;;;16.90;99.70;;;;;;779955;182;26554;-76
2024/04/14 08:58:33;;;;;;;11.17;5.20;;;17.30;99.10;;;;;;782178;182;27066;-75
2024/04/14 09:00:58;;;;;;;14.00;5.27;;;16.90;98.60;;;;;;780785;183;26543;-76
2024/04/14 09:03:25;;;;;;;12.43;6.80;;;16.90;99.50;;;;;;780746;183;27079;-75
2024/04/14 09:05:52;;;;;;;21.87;7.67;;;17.10;99.70;;;;;;782001;183;26515;-75
2024/04/14 09:08:18;;;;;;;17.20;7.33;;;16.90;99.80;;;;;;779285;183;26454;-73
2024/04/14 09:10:45;;;;;;;15.97;6.53;;;17.00;99.90;;;;;;781024;182;27000;-75
2024/04/14 09:13:11;;;;;;;14.37;5.97;;;16.90;99.00;;;;;;781251;182;26467;-76
2024/04/14 09:15:40;;;;;;;12.70;5.07;;;16.90;98.90;;;;;;783812;182;26536;-76
2024/04/14 09:18:06;;;;;;;13.53;4.50;;;16.70;98.40;;;;;;781681;183;26506;-76
2024/04/14 09:20:33;;;;;;;10.70;4.63;;;16.40;98.20;;;;;;782398;182;26455;-77
2024/04/14 09:22:59;;;;;;;12.83;5.40;;;16.60;99.50;;;;;;782504;183;26481;-74
2024/04/14 09:25:26;;;;;;;26.43;11.27;;;16.70;98.10;;;;;;783266;183;26467;-78
2024/04/14 09:28:04;;;;;;;8.83;3.50;;;16.80;98.80;;;;;;781472;184;27079;-78
2024/04/14 09:30:30;;;;;;;10.47;3.80;;;16.50;96.20;;;;;;782695;183;26447;-77
2024/04/14 09:32:57;;;;;;;12.37;4.27;;;16.40;96.70;;;;;;781460;183;26516;-77
2024/04/14 09:35:25;;;;;;;12.40;3.87;;;16.20;96.40;;;;;;782475;182;26462;-77
2024/04/14 09:37:50;;;;;;;10.87;4.20;;;16.10;96.70;;;;;;781704;182;26448;-76
2024/04/14 09:40:17;;;;;;;10.77;3.60;;;16.10;96.40;;;;;;781216;183;26564;-78
2024/04/14 09:42:43;;;;;;;13.50;5.50;;;16.60;95.40;;;;;;781462;182;26481;-76
2024/04/14 09:45:10;;;;;;;9.93;3.80;;;16.70;94.60;;;;;;779260;182;26471;-77
2024/04/14 09:47:36;;;;;;;11.00;3.30;;;16.70;93.40;;;;;;780517;183;26540;-76
2024/04/14 09:50:03;;;;;;;8.50;3.47;;;17.10;93.10;;;;;;780385;182;26518;-75
2024/04/14 09:52:30;;;;;;;11.07;4.17;;;17.30;93.10;;;;;;779491;183;27012;-77
2024/04/14 09:54:57;;;;;;;9.27;3.37;;;17.70;93.20;;;;;;781541;182;26458;-76
2024/04/14 09:57:23;;;;;;;13.27;4.17;;;18.10;91.10;;;;;;779293;182;26638;-77
2024/04/14 09:59:50;;;;;;;8.97;4.37;;;18.20;91.30;;;;;;778816;183;26651;-76
2024/04/14 10:02:17;;;;;;;12.73;5.40;;;18.30;91.00;;;;;;779024;183;26540;-76
2024/04/14 10:04:44;;;;;;;12.27;4.37;;;17.90;90.70;;;;;;779891;182;26527;-77
2024/04/14 10:07:11;;;;;;;10.67;3.93;;;17.90;91.20;;;;;;782169;182;26511;-77
2024/04/14 10:09:37;;;;;;;7.50;3.40;;;17.70;92.00;;;;;;781860;182;26470;-76
2024/04/14 10:12:04;;;;;;;10.47;5.57;;;18.00;90.80;;;;;;783341;182;26451;-76
2024/04/14 10:14:40;;;;;;;11.80;4.40;;;18.00;90.70;;;;;;784273;182;26488;-77
2024/04/14 10:17:06;;;;;;;13.03;5.80;;;17.90;89.70;;;;;;781290;182;26463;-77
2024/04/14 10:19:35;;;;;;;10.77;4.73;;;17.70;90.60;;;;;;780279;183;26472;-76
2024/04/14 10:22:01;;;;;;;7.53;3.63;;;17.70;91.00;;;;;;781565;183;26462;-77
2024/04/14 10:24:32;;;;;;;11.07;5.10;;;17.70;90.20;;;;;;782635;183;26490;-76
2024/04/14 10:26:55;;;;;;;19.50;8.00;;;18.00;90.90;;;;;;780426;182;26455;-77
2024/04/14 10:29:22;;;;;;;32.30;15.80;;;18.30;88.80;;;;;;782718;183;26781;-77
2024/04/14 10:31:48;;;;;;;29.60;16.00;;;18.40;87.00;;;;;;784960;182;26474;-76
2024/04/14 10:34:22;;;;;;;13.17;7.73;;;18.60;86.80;;;;;;781225;182;26496;-76
2024/04/14 10:36:57;;;;;;;8.93;5.13;;;18.70;86.50;;;;;;779602;183;27081;-76
2024/04/14 10:39:24;;;;;;;10.00;3.47;;;19.10;84.70;;;;;;780329;182;26450;-78
2024/04/14 10:41:50;;;;;;;10.13;4.10;;;18.60;82.90;;;;;;779979;182;27024;-74
2024/04/14 10:44:16;;;;;;;10.77;4.27;;;18.30;84.90;;;;;;780139;183;26542;-76
2024/04/14 10:46:44;;;;;;;8.63;3.43;;;18.00;85.50;;;;;;780321;182;27096;-76
2024/04/14 10:49:10;;;;;;;9.37;2.83;;;17.80;86.50;;;;;;779380;183;26450;-75
2024/04/14 10:51:38;;;;;;;9.53;3.30;;;17.80;88.50;;;;;;779259;183;26541;-76
2024/04/14 10:54:04;;;;;;;10.93;5.40;;;18.10;84.30;;;;;;779112;183;27033;-77
2024/04/14 10:56:31;;;;;;;27.70;14.57;;;18.60;82.60;;;;;;779500;183;26471;-76
2024/04/14 10:58:58;;;;;;;34.57;17.73;;;18.90;79.50;;;;;;780417;183;26478;-77
2024/04/14 11:01:25;;;;;;;66.17;32.13;;;18.70;77.70;;;;;;779222;182;26460;-76
2024/04/14 11:03:51;;;;;;;34.30;16.53;;;18.90;78.70;;;;;;779186;184;26468;-77
2024/04/14 11:06:18;;;;;;;20.63;11.63;;;19.80;72.20;;;;;;779415;182;26471;-77
2024/04/14 11:08:46;;;;;;;11.83;6.83;;;19.90;72.50;;;;;;778909;182;26462;-77
2024/04/14 11:11:13;;;;;;;5.30;2.70;;;21.00;68.60;;;;;;779433;184;26497;-76
2024/04/14 11:13:39;;;;;;;9.53;3.37;;;20.70;65.20;;;;;;779851;183;27009;-76
2024/04/14 11:16:06;;;;;;;6.67;3.13;;;20.60;62.00;;;;;;780847;183;26488;-77
2024/04/14 11:18:34;;;;;;;8.03;3.37;;;19.80;65.10;;;;;;781824;182;26455;-77
2024/04/14 11:21:00;;;;;;;7.77;3.17;;;19.00;67.80;;;;;;781657;180;26597;-76
2024/04/14 11:23:27;;;;;;;10.93;5.57;;;19.70;68.40;;;;;;781194;182;27069;-75
2024/04/14 11:25:53;;;;;;;9.27;3.60;;;21.10;63.80;;;;;;780494;183;26654;-76
2024/04/14 11:28:20;;;;;;;10.97;3.83;;;21.70;58.10;;;;;;782844;182;26536;-77
2024/04/14 11:30:47;;;;;;;8.17;3.83;;;21.00;58.30;;;;;;781803;182;26599;-77
2024/04/14 11:33:14;;;;;;;9.57;3.63;;;20.50;61.30;;;;;;781527;182;26474;-76
2024/04/14 11:35:40;;;;;;;7.27;3.33;;;21.20;59.80;;;;;;782914;182;26475;-76
2024/04/14 11:38:07;;;;;;;7.87;3.70;;;21.70;57.20;;;;;;780406;182;27020;-76
2024/04/14 11:40:34;;;;;;;11.50;5.80;;;21.90;56.50;;;;;;780321;182;27088;-76
2024/04/14 11:43:01;;;;;;;11.60;5.20;;;21.50;57.30;;;;;;779525;182;26535;-74
2024/04/14 11:45:27;;;;;;;8.23;4.20;;;20.70;59.00;;;;;;780081;183;26515;-75
2024/04/14 11:47:54;;;;;;;11.20;4.00;;;20.70;59.00;;;;;;780199;182;26503;-76
2024/04/14 11:50:22;;;;;;;10.13;4.80;;;21.50;57.30;;;;;;781447;182;26604;-76
2024/04/14 11:52:48;;;;;;;9.10;4.67;;;22.60;54.30;;;;;;782828;182;26519;-76
2024/04/14 11:55:15;;;;;;;9.80;4.43;;;22.10;54.90;;;;;;780374;182;26454;-77
2024/04/14 11:57:41;;;;;;;12.80;6.57;;;22.70;54.50;;;;;;779824;182;26540;-76
2024/04/14 12:00:08;;;;;;;11.73;6.53;;;23.10;51.10;;;;;;781052;183;26530;-76
2024/04/14 12:02:35;;;;;;;12.00;5.60;;;22.90;51.10;;;;;;779698;183;26555;-76
2024/04/14 12:05:01;;;;;;;17.60;8.87;;;22.10;52.90;;;;;;780651;183;26460;-76
2024/04/14 12:07:28;;;;;;;12.90;4.87;;;22.20;53.90;;;;;;780016;184;27111;-76
2024/04/14 12:09:54;;;;;;;10.77;5.60;;;22.20;53.90;;;;;;780069;182;26479;-76
2024/04/14 12:12:21;;;;;;;12.03;4.60;;;21.20;55.20;;;;;;779893;182;26475;-77
2024/04/14 12:14:48;;;;;;;8.77;4.23;;;20.10;59.00;;;;;;780656;182;26495;-76
2024/04/14 12:17:14;;;;;;;11.00;5.10;;;19.80;62.80;;;;;;779390;182;26475;-77
2024/04/14 12:19:41;;;;;;;11.67;5.00;;;19.90;65.60;;;;;;779539;183;26545;-76
2024/04/14 12:22:08;;;;;;;12.83;4.87;;;20.20;64.50;;;;;;779750;183;26473;-76
2024/04/14 12:24:34;;;;;;;11.07;4.17;;;19.90;65.20;;;;;;779818;182;27095;-76
2024/04/14 12:27:01;;;;;;;12.27;4.47;;;19.40;67.20;;;;;;780557;182;26507;-76
2024/04/14 12:29:27;;;;;;;12.97;5.97;;;18.80;72.20;;;;;;780851;182;26757;-76
2024/04/14 12:31:54;;;;;;;8.87;5.03;;;19.20;73.40;;;;;;781437;182;26539;-77
2024/04/14 12:34:21;;;;;;;9.10;4.40;;;20.20;68.60;;;;;;782073;182;26463;-76
2024/04/14 12:36:47;;;;;;;10.50;4.90;;;20.10;66.70;;;;;;782484;182;26452;-77